sensor_id;sensor_type;location;lat;lon;timestamp;pressure;altitude;pressure_sealevel;temperature;humidity
62333;BME280;48624;49.812;8.562;2022-10-30T00:00:30;100910.78;;;13.26;100.00
62333;BME280;48624;49.812;8.562;2022-10-30T00:02:55;100908.44;;;13.22;100.00
62333;BME280;48624;49.812;8.562;2022-10-30T00:05:21;100909.50;;;13.19;100.00
62333;BME280;48624;49.812;8.562;2022-10-30T00:07:47;100904.91;;;13.21;100.00
62333;BME280;48624;49.812;8.562;2022-10-30T00:10:12;100896.50;;;13.27;100.00
62333;BME280;48624;49.812;8.562;2022-10-30T00:12:38;100908.34;;;13.23;100.00
62333;BME280;48624;49.812;8.562;2022-10-30T00:15:04;100905.06;;;13.20;100.00
62333;BME280;48624;49.812;8.562;2022-10-30T00:17:29;100912.28;;;13.17;100.00
62333;BME280;48624;49.812;8.562;2022-10-30T00:19:55;100911.16;;;12.96;100.00
62333;BME280;48624;49.812;8.562;2022-10-30T00:22:20;100899.88;;;12.66;100.00
62333;BME280;48624;49.812;8.562;2022-10-30T00:24:46;100893.09;;;12.75;100.00
62333;BME280;48624;49.812;8.562;2022-10-30T00:27:11;100902.53;;;12.79;100.00
62333;BME280;48624;49.812;8.562;2022-10-30T00:29:36;100898.31;;;12.63;100.00
62333;BME280;48624;49.812;8.562;2022-10-30T00:32:02;100904.78;;;12.72;100.00
62333;BME280;48624;49.812;8.562;2022-10-30T00:34:27;100902.66;;;12.77;100.00
62333;BME280;48624;49.812;8.562;2022-10-30T00:36:53;100896.06;;;12.70;100.00
62333;BME280;48624;49.812;8.562;2022-10-30T00:39:18;100902.66;;;12.52;100.00
62333;BME280;48624;49.812;8.562;2022-10-30T00:41:43;100897.34;;;12.39;100.00
62333;BME280;48624;49.812;8.562;2022-10-30T00:44:31;100903.50;;;12.26;100.00
62333;BME280;48624;49.812;8.562;2022-10-30T00:47:00;100897.66;;;12.47;100.00
62333;BME280;48624;49.812;8.562;2022-10-30T00:49:34;100891.72;;;12.56;100.00
62333;BME280;48624;49.812;8.562;2022-10-30T00:52:02;100883.00;;;12.67;100.00
62333;BME280;48624;49.812;8.562;2022-10-30T00:54:30;100888.09;;;12.70;100.00
62333;BME280;48624;49.812;8.562;2022-10-30T00:56:57;100878.94;;;12.74;100.00
62333;BME280;48624;49.812;8.562;2022-10-30T00:59:27;100883.28;;;12.75;100.00
62333;BME280;48624;49.812;8.562;2022-10-30T01:01:55;100883.28;;;12.75;100.00
62333;BME280;48624;49.812;8.562;2022-10-30T01:04:22;100882.66;;;12.85;100.00
62333;BME280;48624;49.812;8.562;2022-10-30T01:06:49;100874.47;;;12.75;100.00
62333;BME280;48624;49.812;8.562;2022-10-30T01:09:18;100879.97;;;12.85;100.00
62333;BME280;48624;49.812;8.562;2022-10-30T01:11:44;100876.72;;;12.81;100.00
62333;BME280;48624;49.812;8.562;2022-10-30T01:14:11;100873.75;;;12.86;100.00
62333;BME280;48624;49.812;8.562;2022-10-30T01:17:08;100882.22;;;12.78;100.00
62333;BME280;48624;49.812;8.562;2022-10-30T01:19:52;100873.84;;;12.84;100.00
62333;BME280;48624;49.812;8.562;2022-10-30T01:28:07;100872.66;;;12.75;100.00
62333;BME280;48624;49.812;8.562;2022-10-30T01:36:27;100871.19;;;12.71;100.00
62333;BME280;48624;49.812;8.562;2022-10-30T01:39:01;100874.25;;;12.78;100.00
62333;BME280;48624;49.812;8.562;2022-10-30T01:41:28;100882.56;;;12.60;100.00
62333;BME280;48624;49.812;8.562;2022-10-30T01:44:00;100870.88;;;12.50;100.00
62333;BME280;48624;49.812;8.562;2022-10-30T01:52:20;100866.91;;;12.04;100.00
62333;BME280;48624;49.812;8.562;2022-10-30T01:59:54;100867.66;;;11.65;100.00
62333;BME280;48624;49.812;8.562;2022-10-30T02:02:21;100863.59;;;11.60;100.00
62333;BME280;48624;49.812;8.562;2022-10-30T02:04:48;100862.25;;;11.67;100.00
62333;BME280;48624;49.812;8.562;2022-10-30T02:07:13;100859.34;;;11.57;100.00
62333;BME280;48624;49.812;8.562;2022-10-30T02:09:39;100859.97;;;11.61;100.00
62333;BME280;48624;49.812;8.562;2022-10-30T02:12:04;100857.94;;;11.51;100.00
62333;BME280;48624;49.812;8.562;2022-10-30T02:14:36;100861.28;;;11.68;100.00
62333;BME280;48624;49.812;8.562;2022-10-30T02:17:04;100871.28;;;11.77;100.00
62333;BME280;48624;49.812;8.562;2022-10-30T02:19:30;100874.38;;;11.84;100.00
62333;BME280;48624;49.812;8.562;2022-10-30T02:21:56;100874.78;;;11.78;100.00
62333;BME280;48624;49.812;8.562;2022-10-30T02:24:21;100874.00;;;11.63;100.00
62333;BME280;48624;49.812;8.562;2022-10-30T02:26:47;100875.16;;;11.59;100.00
62333;BME280;48624;49.812;8.562;2022-10-30T02:29:12;100868.25;;;11.56;100.00
62333;BME280;48624;49.812;8.562;2022-10-30T02:31:38;100872.78;;;11.82;100.00
62333;BME280;48624;49.812;8.562;2022-10-30T02:34:03;100877.56;;;11.76;100.00
62333;BME280;48624;49.812;8.562;2022-10-30T02:36:29;100882.13;;;11.87;100.00
62333;BME280;48624;49.812;8.562;2022-10-30T02:38:54;100881.19;;;11.88;100.00
62333;BME280;48624;49.812;8.562;2022-10-30T02:41:21;100882.25;;;11.86;100.00
62333;BME280;48624;49.812;8.562;2022-10-30T02:43:46;100875.88;;;11.88;100.00
62333;BME280;48624;49.812;8.562;2022-10-30T02:46:11;100882.00;;;12.03;100.00
62333;BME280;48624;49.812;8.562;2022-10-30T02:48:37;100875.75;;;12.17;100.00
62333;BME280;48624;49.812;8.562;2022-10-30T02:51:03;100882.34;;;12.25;100.00
62333;BME280;48624;49.812;8.562;2022-10-30T02:53:29;100881.59;;;12.23;100.00
62333;BME280;48624;49.812;8.562;2022-10-30T02:55:55;100870.75;;;12.26;100.00
62333;BME280;48624;49.812;8.562;2022-10-30T02:58:20;100871.94;;;12.34;100.00
62333;BME280;48624;49.812;8.562;2022-10-30T03:00:45;100876.63;;;12.44;100.00
62333;BME280;48624;49.812;8.562;2022-10-30T03:03:11;100872.06;;;12.46;100.00
62333;BME280;48624;49.812;8.562;2022-10-30T03:05:36;100880.03;;;12.59;100.00
62333;BME280;48624;49.812;8.562;2022-10-30T03:08:02;100883.97;;;12.53;100.00
62333;BME280;48624;49.812;8.562;2022-10-30T03:10:27;100873.09;;;12.69;100.00
62333;BME280;48624;49.812;8.562;2022-10-30T03:12:52;100872.38;;;12.67;100.00
62333;BME280;48624;49.812;8.562;2022-10-30T03:15:19;100867.06;;;12.67;100.00
62333;BME280;48624;49.812;8.562;2022-10-30T03:17:44;100868.63;;;12.70;100.00
62333;BME280;48624;49.812;8.562;2022-10-30T03:20:11;100866.94;;;12.69;100.00
62333;BME280;48624;49.812;8.562;2022-10-30T03:22:36;100863.84;;;12.75;100.00
62333;BME280;48624;49.812;8.562;2022-10-30T03:25:01;100876.28;;;12.74;100.00
62333;BME280;48624;49.812;8.562;2022-10-30T03:27:27;100876.91;;;12.78;100.00
62333;BME280;48624;49.812;8.562;2022-10-30T03:29:52;100876.28;;;12.74;100.00
62333;BME280;48624;49.812;8.562;2022-10-30T03:32:18;100883.84;;;12.68;100.00
62333;BME280;48624;49.812;8.562;2022-10-30T03:34:43;100889.59;;;12.48;100.00
62333;BME280;48624;49.812;8.562;2022-10-30T03:37:09;100891.19;;;12.25;100.00
62333;BME280;48624;49.812;8.562;2022-10-30T03:39:34;100889.94;;;12.03;100.00
62333;BME280;48624;49.812;8.562;2022-10-30T03:41:59;100881.03;;;12.04;100.00
62333;BME280;48624;49.812;8.562;2022-10-30T03:44:24;100882.38;;;11.97;100.00
62333;BME280;48624;49.812;8.562;2022-10-30T03:46:50;100878.75;;;11.85;100.00
62333;BME280;48624;49.812;8.562;2022-10-30T03:49:15;100884.44;;;11.79;100.00
62333;BME280;48624;49.812;8.562;2022-10-30T03:51:40;100889.34;;;11.85;100.00
62333;BME280;48624;49.812;8.562;2022-10-30T03:54:06;100883.00;;;11.60;100.00
62333;BME280;48624;49.812;8.562;2022-10-30T03:56:31;100888.00;;;11.92;100.00
62333;BME280;48624;49.812;8.562;2022-10-30T03:58:56;100885.03;;;11.97;100.00
62333;BME280;48624;49.812;8.562;2022-10-30T04:01:21;100891.94;;;12.00;100.00
62333;BME280;48624;49.812;8.562;2022-10-30T04:03:47;100880.88;;;11.93;100.00
62333;BME280;48624;49.812;8.562;2022-10-30T04:06:12;100880.94;;;12.06;100.00
62333;BME280;48624;49.812;8.562;2022-10-30T04:08:38;100881.03;;;12.04;100.00
62333;BME280;48624;49.812;8.562;2022-10-30T04:11:03;100876.59;;;12.05;100.00
62333;BME280;48624;49.812;8.562;2022-10-30T04:13:28;100873.06;;;12.04;100.00
62333;BME280;48624;49.812;8.562;2022-10-30T04:15:54;100891.94;;;12.00;100.00
62333;BME280;48624;49.812;8.562;2022-10-30T04:18:19;100891.44;;;11.67;100.00
62333;BME280;48624;49.812;8.562;2022-10-30T04:20:44;100885.22;;;11.81;100.00
62333;BME280;48624;49.812;8.562;2022-10-30T04:23:16;100887.41;;;11.74;100.00
62333;BME280;48624;49.812;8.562;2022-10-30T04:25:41;100880.31;;;11.75;100.00
62333;BME280;48624;49.812;8.562;2022-10-30T04:28:07;100880.81;;;11.67;100.00
62333;BME280;48624;49.812;8.562;2022-10-30T04:30:33;100886.88;;;11.69;100.00
62333;BME280;48624;49.812;8.562;2022-10-30T04:33:03;100881.91;;;11.77;100.00
62333;BME280;48624;49.812;8.562;2022-10-30T04:35:31;100885.53;;;11.76;100.00
62333;BME280;48624;49.812;8.562;2022-10-30T04:38:02;100890.72;;;11.78;100.00
62333;BME280;48624;49.812;8.562;2022-10-30T04:40:29;100891.91;;;11.87;100.00
62333;BME280;48624;49.812;8.562;2022-10-30T04:42:58;100880.75;;;11.82;100.00
62333;BME280;48624;49.812;8.562;2022-10-30T04:45:24;100873.78;;;11.66;100.00
62333;BME280;48624;49.812;8.562;2022-10-30T04:47:49;100870.09;;;11.69;100.00
62333;BME280;48624;49.812;8.562;2022-10-30T04:50:15;100877.97;;;11.70;100.00
62333;BME280;48624;49.812;8.562;2022-10-30T04:52:41;100880.03;;;11.65;100.00
62333;BME280;48624;49.812;8.562;2022-10-30T04:55:07;100872.00;;;11.66;100.00
62333;BME280;48624;49.812;8.562;2022-10-30T04:57:33;100867.00;;;11.62;100.00
62333;BME280;48624;49.812;8.562;2022-10-30T05:00:02;100859.78;;;11.64;100.00
62333;BME280;48624;49.812;8.562;2022-10-30T05:02:27;100864.78;;;11.69;100.00
62333;BME280;48624;49.812;8.562;2022-10-30T05:04:53;100868.59;;;11.64;100.00
62333;BME280;48624;49.812;8.562;2022-10-30T05:07:18;100865.19;;;11.62;100.00
62333;BME280;48624;49.812;8.562;2022-10-30T05:09:43;100873.34;;;11.59;100.00
62333;BME280;48624;49.812;8.562;2022-10-30T05:12:09;100867.69;;;11.51;100.00
62333;BME280;48624;49.812;8.562;2022-10-30T05:14:34;100872.81;;;11.54;100.00
62333;BME280;48624;49.812;8.562;2022-10-30T05:17:00;100868.63;;;11.50;100.00
62333;BME280;48624;49.812;8.562;2022-10-30T05:19:25;100874.38;;;11.44;100.00
62333;BME280;48624;49.812;8.562;2022-10-30T05:21:51;100880.88;;;11.38;100.00
62333;BME280;48624;49.812;8.562;2022-10-30T05:24:16;100869.16;;;11.28;100.00
62333;BME280;48624;49.812;8.562;2022-10-30T05:26:42;100862.00;;;11.30;100.00
62333;BME280;48624;49.812;8.562;2022-10-30T05:29:07;100865.78;;;11.26;100.00
62333;BME280;48624;49.812;8.562;2022-10-30T05:31:32;100861.56;;;10.94;100.00
62333;BME280;48624;49.812;8.562;2022-10-30T05:33:58;100862.06;;;11.28;100.00
62333;BME280;48624;49.812;8.562;2022-10-30T05:36:24;100847.63;;;11.19;100.00
62333;BME280;48624;49.812;8.562;2022-10-30T05:38:49;100849.31;;;11.20;100.00
62333;BME280;48624;49.812;8.562;2022-10-30T05:41:14;100848.53;;;11.18;100.00
62333;BME280;48624;49.812;8.562;2022-10-30T05:43:39;100846.47;;;11.09;100.00
62333;BME280;48624;49.812;8.562;2022-10-30T05:46:05;100843.44;;;11.15;100.00
62333;BME280;48624;49.812;8.562;2022-10-30T05:48:30;100848.97;;;11.12;100.00
62333;BME280;48624;49.812;8.562;2022-10-30T05:50:55;100857.56;;;11.16;100.00
62333;BME280;48624;49.812;8.562;2022-10-30T05:53:21;100864.13;;;11.10;100.00
62333;BME280;48624;49.812;8.562;2022-10-30T05:55:47;100853.50;;;11.10;100.00
62333;BME280;48624;49.812;8.562;2022-10-30T05:58:14;100851.59;;;11.12;100.00
62333;BME280;48624;49.812;8.562;2022-10-30T06:00:39;100867.91;;;11.06;100.00
62333;BME280;48624;49.812;8.562;2022-10-30T06:03:07;100869.22;;;11.13;100.00
62333;BME280;48624;49.812;8.562;2022-10-30T06:05:35;100871.88;;;11.13;100.00
62333;BME280;48624;49.812;8.562;2022-10-30T06:08:01;100876.44;;;11.11;100.00
62333;BME280;48624;49.812;8.562;2022-10-30T06:10:27;100880.03;;;11.10;100.00
62333;BME280;48624;49.812;8.562;2022-10-30T06:15:18;100887.63;;;11.02;100.00
62333;BME280;48624;49.812;8.562;2022-10-30T06:17:43;100881.72;;;10.96;100.00
62333;BME280;48624;49.812;8.562;2022-10-30T06:20:09;100878.03;;;10.99;100.00
62333;BME280;48624;49.812;8.562;2022-10-30T06:22:34;100886.19;;;10.96;100.00
62333;BME280;48624;49.812;8.562;2022-10-30T06:24:59;100887.53;;;10.89;100.00
62333;BME280;48624;49.812;8.562;2022-10-30T06:27:25;100877.75;;;10.89;100.00
62333;BME280;48624;49.812;8.562;2022-10-30T06:29:50;100881.06;;;10.93;100.00
62333;BME280;48624;49.812;8.562;2022-10-30T06:32:19;100882.97;;;10.91;100.00
62333;BME280;48624;49.812;8.562;2022-10-30T06:34:44;100880.81;;;10.83;100.00
62333;BME280;48624;49.812;8.562;2022-10-30T06:37:09;100886.66;;;10.88;100.00
62333;BME280;48624;49.812;8.562;2022-10-30T06:39:35;100892.41;;;10.95;100.00
62333;BME280;48624;49.812;8.562;2022-10-30T06:42:00;100894.31;;;10.93;100.00
62333;BME280;48624;49.812;8.562;2022-10-30T06:44:26;100901.16;;;10.97;100.00
62333;BME280;48624;49.812;8.562;2022-10-30T06:46:52;100893.38;;;10.94;100.00
62333;BME280;48624;49.812;8.562;2022-10-30T06:49:17;100893.38;;;10.94;100.00
62333;BME280;48624;49.812;8.562;2022-10-30T06:51:43;100887.59;;;10.87;100.00
62333;BME280;48624;49.812;8.562;2022-10-30T06:54:08;100884.38;;;10.96;100.00
62333;BME280;48624;49.812;8.562;2022-10-30T06:56:33;100887.31;;;10.92;100.00
62333;BME280;48624;49.812;8.562;2022-10-30T06:58:59;100895.66;;;11.00;100.00
62333;BME280;48624;49.812;8.562;2022-10-30T07:01:24;100899.25;;;10.99;100.00
62333;BME280;48624;49.812;8.562;2022-10-30T07:03:49;100899.34;;;10.68;100.00
62333;BME280;48624;49.812;8.562;2022-10-30T07:06:15;100895.75;;;10.55;100.00
62333;BME280;48624;49.812;8.562;2022-10-30T07:08:41;100902.28;;;10.49;100.00
62333;BME280;48624;49.812;8.562;2022-10-30T07:11:07;100905.69;;;10.51;100.00
62333;BME280;48624;49.812;8.562;2022-10-30T07:13:32;100900.50;;;10.34;100.00
62333;BME280;48624;49.812;8.562;2022-10-30T07:15:58;100899.72;;;10.48;100.00
62333;BME280;48624;49.812;8.562;2022-10-30T07:18:23;100899.72;;;10.48;100.00
62333;BME280;48624;49.812;8.562;2022-10-30T07:20:53;100900.47;;;10.50;100.00
62333;BME280;48624;49.812;8.562;2022-10-30T07:23:19;100914.47;;;10.52;100.00
62333;BME280;48624;49.812;8.562;2022-10-30T07:25:44;100913.63;;;10.51;100.00
62333;BME280;48624;49.812;8.562;2022-10-30T07:28:09;100919.22;;;10.61;100.00
62333;BME280;48624;49.812;8.562;2022-10-30T07:30:35;100911.47;;;10.87;100.00
62333;BME280;48624;49.812;8.562;2022-10-30T07:33:02;100907.50;;;10.94;100.00
62333;BME280;48624;49.812;8.562;2022-10-30T07:35:28;100925.09;;;11.10;100.00
62333;BME280;48624;49.812;8.562;2022-10-30T07:37:54;100923.38;;;11.23;100.00
62333;BME280;48624;49.812;8.562;2022-10-30T07:40:20;100920.94;;;11.06;100.00
62333;BME280;48624;49.812;8.562;2022-10-30T07:42:48;100923.38;;;11.09;100.00
62333;BME280;48624;49.812;8.562;2022-10-30T07:45:19;100926.97;;;11.22;100.00
62333;BME280;48624;49.812;8.562;2022-10-30T07:47:44;100926.47;;;11.30;100.00
62333;BME280;48624;49.812;8.562;2022-10-30T07:50:10;100927.81;;;11.23;100.00
62333;BME280;48624;49.812;8.562;2022-10-30T07:52:35;100926.47;;;11.30;100.00
62333;BME280;48624;49.812;8.562;2022-10-30T07:55:01;100920.59;;;11.40;100.00
62333;BME280;48624;49.812;8.562;2022-10-30T07:57:30;100931.78;;;11.45;100.00
62333;BME280;48624;49.812;8.562;2022-10-30T07:59:55;100922.16;;;11.57;100.00
62333;BME280;48624;49.812;8.562;2022-10-30T08:02:20;100922.41;;;11.66;100.00
62333;BME280;48624;49.812;8.562;2022-10-30T08:04:46;100931.13;;;11.69;100.00
62333;BME280;48624;49.812;8.562;2022-10-30T08:07:11;100920.16;;;11.88;100.00
62333;BME280;48624;49.812;8.562;2022-10-30T08:09:36;100924.16;;;11.80;100.00
62333;BME280;48624;49.812;8.562;2022-10-30T08:12:02;100928.28;;;11.99;100.00
62333;BME280;48624;49.812;8.562;2022-10-30T08:14:28;100916.19;;;12.08;100.00
62333;BME280;48624;49.812;8.562;2022-10-30T08:16:54;100925.16;;;12.20;100.00
62333;BME280;48624;49.812;8.562;2022-10-30T08:21:55;100926.91;;;12.47;100.00
62333;BME280;48624;49.812;8.562;2022-10-30T08:24:21;100931.50;;;12.58;100.00
62333;BME280;48624;49.812;8.562;2022-10-30T08:26:46;100935.09;;;12.70;100.00
62333;BME280;48624;49.812;8.562;2022-10-30T08:29:16;100941.91;;;12.87;100.00
62333;BME280;48624;49.812;8.562;2022-10-30T08:31:42;100950.53;;;12.90;100.00
62333;BME280;48624;49.812;8.562;2022-10-30T08:34:07;100945.94;;;13.06;100.00
62333;BME280;48624;49.812;8.562;2022-10-30T08:36:33;100943.47;;;13.15;100.00
62333;BME280;48624;49.812;8.562;2022-10-30T08:38:59;100946.66;;;13.21;100.00
62333;BME280;48624;49.812;8.562;2022-10-30T08:41:25;100939.47;;;13.34;100.00
62333;BME280;48624;49.812;8.562;2022-10-30T08:43:50;100945.09;;;13.42;100.00
62333;BME280;48624;49.812;8.562;2022-10-30T08:46:15;100941.41;;;13.45;100.00
62333;BME280;48624;49.812;8.562;2022-10-30T08:48:41;100936.69;;;13.62;100.00
62333;BME280;48624;49.812;8.562;2022-10-30T08:51:06;100925.13;;;13.74;100.00
62333;BME280;48624;49.812;8.562;2022-10-30T08:53:31;100926.31;;;13.94;100.00
62333;BME280;48624;49.812;8.562;2022-10-30T08:55:57;100936.50;;;13.76;100.00
62333;BME280;48624;49.812;8.562;2022-10-30T08:58:22;100934.66;;;13.90;100.00
62333;BME280;48624;49.812;8.562;2022-10-30T09:00:47;100936.56;;;13.87;100.00
62333;BME280;48624;49.812;8.562;2022-10-30T09:03:13;100931.47;;;14.20;100.00
62333;BME280;48624;49.812;8.562;2022-10-30T09:05:38;100934.63;;;14.14;100.00
62333;BME280;48624;49.812;8.562;2022-10-30T09:08:04;100937.34;;;14.48;100.00
62333;BME280;48624;49.812;8.562;2022-10-30T09:10:29;100921.16;;;14.63;100.00
62333;BME280;48624;49.812;8.562;2022-10-30T09:12:58;100929.31;;;14.73;100.00
62333;BME280;48624;49.812;8.562;2022-10-30T09:15:26;100931.41;;;14.80;100.00
62333;BME280;48624;49.812;8.562;2022-10-30T09:17:59;100934.28;;;14.89;100.00
62333;BME280;48624;49.812;8.562;2022-10-30T09:20:26;100932.38;;;15.02;100.00
62333;BME280;48624;49.812;8.562;2022-10-30T09:22:51;100919.50;;;15.07;100.00
62333;BME280;48624;49.812;8.562;2022-10-30T09:25:17;100918.53;;;15.20;100.00
62333;BME280;48624;49.812;8.562;2022-10-30T09:27:43;100918.13;;;15.36;100.00
62333;BME280;48624;49.812;8.562;2022-10-30T09:30:09;100919.94;;;15.47;100.00
62333;BME280;48624;49.812;8.562;2022-10-30T09:32:34;100912.38;;;15.52;100.00
62333;BME280;48624;49.812;8.562;2022-10-30T09:34:59;100911.94;;;15.47;99.83
62333;BME280;48624;49.812;8.562;2022-10-30T09:37:26;100901.28;;;15.68;99.94
62333;BME280;48624;49.812;8.562;2022-10-30T09:39:52;100913.28;;;15.85;99.23
62333;BME280;48624;49.812;8.562;2022-10-30T09:45:43;100910.66;;;16.28;97.05
62333;BME280;48624;49.812;8.562;2022-10-30T09:51:30;100912.34;;;16.81;95.44
62333;BME280;48624;49.812;8.562;2022-10-30T09:54:19;100915.19;;;17.20;95.69
62333;BME280;48624;49.812;8.562;2022-10-30T09:57:19;100903.84;;;17.38;92.78
62333;BME280;48624;49.812;8.562;2022-10-30T10:00:08;100912.63;;;17.60;92.84
62333;BME280;48624;49.812;8.562;2022-10-30T10:05:18;100899.38;;;17.88;90.66
62333;BME280;48624;49.812;8.562;2022-10-30T10:07:52;100907.41;;;18.17;90.79
62333;BME280;48624;49.812;8.562;2022-10-30T10:10:25;100893.19;;;18.17;89.95
62333;BME280;48624;49.812;8.562;2022-10-30T10:12:53;100912.78;;;18.27;88.89
62333;BME280;48624;49.812;8.562;2022-10-30T10:15:41;100906.25;;;18.50;87.65
62333;BME280;48624;49.812;8.562;2022-10-30T10:21:25;100908.06;;;18.87;85.76
62333;BME280;48624;49.812;8.562;2022-10-30T10:23:54;100905.56;;;18.76;86.37
62333;BME280;48624;49.812;8.562;2022-10-30T10:26:26;100906.34;;;18.96;85.77
62333;BME280;48624;49.812;8.562;2022-10-30T10:29:12;100901.91;;;19.15;85.06
62333;BME280;48624;49.812;8.562;2022-10-30T10:34:38;100904.94;;;19.30;83.71
62333;BME280;48624;49.812;8.562;2022-10-30T10:37:14;100898.38;;;19.60;81.35
62333;BME280;48624;49.812;8.562;2022-10-30T10:39:56;100891.09;;;19.71;81.72
62333;BME280;48624;49.812;8.562;2022-10-30T10:42:33;100892.78;;;20.08;81.22
62333;BME280;48624;49.812;8.562;2022-10-30T10:50:47;100867.81;;;19.61;80.36
62333;BME280;48624;49.812;8.562;2022-10-30T10:53:21;100888.56;;;20.32;79.34
62333;BME280;48624;49.812;8.562;2022-10-30T10:55:52;100887.31;;;20.79;78.52
62333;BME280;48624;49.812;8.562;2022-10-30T10:58:43;100894.13;;;20.91;76.33
62333;BME280;48624;49.812;8.562;2022-10-30T11:01:14;100876.25;;;20.29;76.87
62333;BME280;48624;49.812;8.562;2022-10-30T11:03:57;100895.56;;;20.77;76.92
62333;BME280;48624;49.812;8.562;2022-10-30T11:06:32;100886.81;;;21.10;75.27
62333;BME280;48624;49.812;8.562;2022-10-30T11:09:14;100880.44;;;21.19;74.67
62333;BME280;48624;49.812;8.562;2022-10-30T11:11:40;100893.31;;;21.59;74.49
62333;BME280;48624;49.812;8.562;2022-10-30T11:14:12;100873.81;;;21.73;73.87
62333;BME280;48624;49.812;8.562;2022-10-30T11:16:50;100872.63;;;21.76;73.80
62333;BME280;48624;49.812;8.562;2022-10-30T11:19:18;100878.84;;;22.26;70.98
62333;BME280;48624;49.812;8.562;2022-10-30T11:21:52;100863.94;;;22.55;68.80
62333;BME280;48624;49.812;8.562;2022-10-30T11:24:33;100876.44;;;22.56;68.71
62333;BME280;48624;49.812;8.562;2022-10-30T11:27:23;100873.50;;;22.83;67.90
62333;BME280;48624;49.812;8.562;2022-10-30T11:29:58;100864.44;;;22.59;68.43
62333;BME280;48624;49.812;8.562;2022-10-30T11:32:27;100874.53;;;22.73;68.38
62333;BME280;48624;49.812;8.562;2022-10-30T11:37:36;100859.31;;;22.81;66.87
62333;BME280;48624;49.812;8.562;2022-10-30T11:43:07;100853.09;;;22.72;67.98
62333;BME280;48624;49.812;8.562;2022-10-30T11:45:39;100850.50;;;22.87;67.15
62333;BME280;48624;49.812;8.562;2022-10-30T11:48:30;100849.50;;;22.80;67.41
62333;BME280;48624;49.812;8.562;2022-10-30T11:50:59;100851.22;;;23.12;67.03
62333;BME280;48624;49.812;8.562;2022-10-30T11:53:56;100852.13;;;23.36;65.07
62333;BME280;48624;49.812;8.562;2022-10-30T11:56:21;100846.19;;;23.09;67.19
62333;BME280;48624;49.812;8.562;2022-10-30T11:58:50;100840.69;;;23.26;65.53
62333;BME280;48624;49.812;8.562;2022-10-30T12:01:34;100842.34;;;23.27;66.12
62333;BME280;48624;49.812;8.562;2022-10-30T12:04:24;100842.56;;;22.54;66.98
62333;BME280;48624;49.812;8.562;2022-10-30T12:07:16;100846.84;;;23.11;66.43
62333;BME280;48624;49.812;8.562;2022-10-30T12:09:44;100831.34;;;23.05;67.34
62333;BME280;48624;49.812;8.562;2022-10-30T12:12:18;100834.94;;;23.21;66.47
62333;BME280;48624;49.812;8.562;2022-10-30T12:14:45;100840.97;;;22.99;67.05
62333;BME280;48624;49.812;8.562;2022-10-30T12:17:13;100831.00;;;23.40;66.15
62333;BME280;48624;49.812;8.562;2022-10-30T12:19:47;100827.31;;;23.56;66.30
62333;BME280;48624;49.812;8.562;2022-10-30T12:22:33;100832.59;;;23.73;64.94
62333;BME280;48624;49.812;8.562;2022-10-30T12:25:02;100827.59;;;23.61;62.94
62333;BME280;48624;49.812;8.562;2022-10-30T12:27:30;100828.50;;;24.45;60.48
62333;BME280;48624;49.812;8.562;2022-10-30T12:32:47;100820.47;;;24.67;59.54
62333;BME280;48624;49.812;8.562;2022-10-30T12:35:37;100821.44;;;25.11;57.79
62333;BME280;48624;49.812;8.562;2022-10-30T12:38:24;100820.22;;;25.14;56.07
62333;BME280;48624;49.812;8.562;2022-10-30T12:41:09;100826.28;;;25.38;56.52
62333;BME280;48624;49.812;8.562;2022-10-30T12:43:38;100814.75;;;25.79;55.59
62333;BME280;48624;49.812;8.562;2022-10-30T12:48:49;100803.94;;;25.57;53.38
62333;BME280;48624;49.812;8.562;2022-10-30T12:53:56;100799.28;;;26.30;52.71
62333;BME280;48624;49.812;8.562;2022-10-30T12:56:29;100797.91;;;26.48;51.48
62333;BME280;48624;49.812;8.562;2022-10-30T12:59:17;100798.97;;;25.61;48.83
62333;BME280;48624;49.812;8.562;2022-10-30T13:01:52;100792.69;;;26.53;48.47
62333;BME280;48624;49.812;8.562;2022-10-30T13:04:25;100798.03;;;26.04;48.87
62333;BME280;48624;49.812;8.562;2022-10-30T13:07:02;100792.06;;;26.51;48.32
62333;BME280;48624;49.812;8.562;2022-10-30T13:09:48;100794.28;;;26.34;48.39
62333;BME280;48624;49.812;8.562;2022-10-30T13:12:21;100793.00;;;26.78;48.00
62333;BME280;48624;49.812;8.562;2022-10-30T13:14:59;100787.25;;;27.01;47.80
62333;BME280;48624;49.812;8.562;2022-10-30T13:17:27;100782.63;;;26.95;47.42
62333;BME280;48624;49.812;8.562;2022-10-30T13:19:53;100786.41;;;26.94;47.39
62333;BME280;48624;49.812;8.562;2022-10-30T13:22:43;100786.75;;;26.78;45.42
62333;BME280;48624;49.812;8.562;2022-10-30T13:25:19;100783.91;;;27.06;45.78
62333;BME280;48624;49.812;8.562;2022-10-30T13:27:54;100776.19;;;27.17;45.41
62333;BME280;48624;49.812;8.562;2022-10-30T13:30:23;100777.44;;;27.14;46.25
62333;BME280;48624;49.812;8.562;2022-10-30T13:33:02;100773.44;;;27.03;45.92
62333;BME280;48624;49.812;8.562;2022-10-30T13:41:18;100771.16;;;27.00;44.37
62333;BME280;48624;49.812;8.562;2022-10-30T13:52:13;100772.41;;;26.97;44.38
62333;BME280;48624;49.812;8.562;2022-10-30T13:54:45;100771.16;;;27.00;43.99
62333;BME280;48624;49.812;8.562;2022-10-30T13:57:46;100767.78;;;26.98;43.64
62333;BME280;48624;49.812;8.562;2022-10-30T14:00:20;100771.38;;;27.39;43.54
62333;BME280;48624;49.812;8.562;2022-10-30T14:03:04;100772.44;;;27.38;42.51
62333;BME280;48624;49.812;8.562;2022-10-30T14:05:37;100773.44;;;26.96;43.47
62333;BME280;48624;49.812;8.562;2022-10-30T14:08:28;100771.97;;;26.94;43.16